• Join FlightAware (Why Join?)
  • Login
  • US Flag 
11:28AM EDT


 

Airport Tracker/Info


-or-


 

Live Flight TrackerFlight Track Log ✈ UAL594 ✈ 06-Apr-2013 ✈ KCLE - KTPA

Flight Track Log - Related Links

Times and Time Zones

All times are in EDT time to prevent confusion due to time zone crossing. See the UAL594 flight status page for this flight to view local times or setup timezone preferences in your user account.

Time Position Orientation Groundspeed Altitude Reporting Facility
EDT Latitude Longitude Course Direction KTS MPH feet Rate Location/Type
07:33AM 41.4153 -81.8292 210° Southwest 140 161 2,200  Level Cleveland Center
07:34AM 41.4161 -81.7489 89° East 233 268 4,300 1,620 Climbing Cleveland Center
07:35AM 41.3958 -81.7097 125° Southeast 268 308 5,300 2,340 Climbing Cleveland Center
07:35AM 41.3647 -81.6981 164° South 282 325 6,700 3,180 Climbing Cleveland Center
07:36AM 41.1013 -82.0870 167° South  Level FlightAware Approximate
07:36AM 41.3247 -81.7194 202° Southwest 267 307 8,500  Level Cleveland Center
07:36AM 41.2850 -81.7492 209° Southwest 282 325 10,200 2,460 Climbing Cleveland Center
07:37AM 40.9827 -82.0499 171° South  Level FlightAware Approximate
07:37AM 41.2492 -81.7761 209° Southwest 304 350 11,000  Level Cleveland Center
07:38AM 40.8669 -82.0589 210° Southwest  Level FlightAware Approximate
07:38AM 41.1672 -81.8408 211° Southwest 330 380 13,600  Level Cleveland Center
07:39AM 41.0872 -81.9028 210° Southwest 354 407 15,500 2,280 Climbing Cleveland Center
07:40AM 40.9967 -81.9725 210° Southwest 378 435 18,200 2,220 Climbing Cleveland Center
07:42AM 40.8322 -82.0953 209° Southwest 383 441 21,800 1,860 Climbing Indianapolis Center
07:43AM 40.7344 -82.1664 209° Southwest 396 456 23,500 1,620 Climbing Indianapolis Center
07:44AM 40.6322 -82.2356 207° Southwest 408 470 25,100 1,380 Climbing Indianapolis Center
07:45AM 40.5081 -82.2578 188° South 444 511 26,400 1,320 Climbing Indianapolis Center
07:46AM 40.3833 -82.2803 188° South 449 517 27,900 1,380 Climbing Indianapolis Center
07:47AM 40.2558 -82.3039 188° South 456 525 29,300 1,320 Climbing Indianapolis Center
07:48AM 40.1339 -82.3267 188° South 461 531 30,600 1,440 Climbing Indianapolis Center
07:49AM 40.0058 -82.3506 188° South 459 528 32,300 1,620 Climbing Indianapolis Center
07:50AM 39.8575 -82.3769 188° South 455 524 34,000 1,320 Climbing Indianapolis Center
07:51AM 39.7325 -82.3994 188° South 449 517 35,100 900 Climbing Indianapolis Center
07:52AM 39.6064 -82.4228 188° South 452 520 35,900 360 Climbing Indianapolis Center
07:53AM 39.4794 -82.4456 188° South 453 521 35,900  Level Indianapolis Center
07:54AM 39.3708 -82.4656 188° South 451 519 36,000  Climbing Indianapolis Center
07:55AM 39.2278 -82.4906 188° South 451 519 35,900  Descending Indianapolis Center
07:56AM 39.1228 -82.5072 187° South 448 516 36,000  Climbing Indianapolis Center
07:57AM 38.9722 -82.5350 188° South 456 525 36,000  Level Indianapolis Center
07:58AM 38.8464 -82.5572 188° South 455 524 36,000  Level Indianapolis Center
07:59AM 38.7219 -82.5858 190° South 454 522 36,000  Level Indianapolis Center
08:00AM 38.6125 -82.6322 198° South 444 511 36,000 -60 Level Indianapolis Center
08:01AM 38.4942 -82.6814 198° South 443 510 35,900  Descending Indianapolis Center
08:02AM 38.3764 -82.7292 198° South 444 511 36,000  Climbing Indianapolis Center
08:03AM 38.2389 -82.7872 198° South 446 513 36,000  Level Indianapolis Center
08:04AM 38.1217 -82.8342 197° South 441 507 36,000  Level Indianapolis Center
08:05AM 38.0058 -82.8833 198° South 439 505 36,000  Level Indianapolis Center
08:06AM 37.8889 -82.9303 198° South 439 505 36,000  Level Indianapolis Center
08:07AM 37.7708 -82.9772 197° South 443 510 36,000  Level Indianapolis Center
08:08AM 37.6547 -83.0253 198° South 440 506 36,000  Level Indianapolis Center
08:09AM 37.5375 -83.0722 198° South 440 506 36,000  Level Indianapolis Center
08:10AM 37.4206 -83.1200 198° South 442 509 36,000  Level Indianapolis Center
08:11AM 37.3031 -83.1669 198° South 443 510 36,000  Level Indianapolis Center
08:12AM 37.1658 -83.2211 197° South 445 512 36,000  Level Indianapolis Center
08:13AM 37.0497 -83.2694 198° South 443 510 36,000  Level Indianapolis Center
08:14AM 36.9322 -83.3147 197° South 444 511 36,000  Level Indianapolis Center
08:15AM 36.8144 -83.3603 197° South 445 512 36,000  Level Indianapolis Center
08:16AM 36.6975 -83.4067 198° South 444 511 36,000  Level Indianapolis Center
08:17AM 36.5836 -83.4606 201° Southwest 442 509 36,000  Level Indianapolis Center
08:18AM 36.4756 -83.5333 208° Southwest 433 498 36,000  Level Indianapolis Center
08:19AM 36.3692 -83.6014 207° Southwest 430 495 36,000  Level Indianapolis Center
08:20AM 36.3122 -83.6394 208° Southwest 433 498 36,000  Level Atlanta Center
08:21AM 36.1956 -83.7119 207° Southwest 427 491 36,000  Level Atlanta Center
08:22AM 36.0892 -83.7792 207° Southwest 432 497 36,000  Level Atlanta Center
08:23AM 35.9831 -83.8464 207° Southwest 432 497 36,000  Level Atlanta Center
08:24AM 35.8706 -83.9031 202° Southwest 427 491 36,000  Level Atlanta Center
08:25AM 35.7517 -83.9339 192° South 432 497 36,000  Level Atlanta Center
08:26AM 35.6306 -83.9622 191° South 444 511 36,000  Level Atlanta Center
08:27AM 35.5325 -83.9853 191° South 450 518 36,000  Level Atlanta Center
08:28AM 35.4011 -84.0183 192° South 450 518 36,000  Level Atlanta Center
08:29AM 35.2781 -84.0489 191° South 450 518 36,000  Level Atlanta Center
08:30AM 35.1569 -84.0769 191° South 450 518 36,000  Level Atlanta Center
08:31AM 35.0361 -84.1072 192° South 450 518 36,000  Level Atlanta Center
08:32AM 34.9150 -84.1350 191° South 450 518 36,000  Level Atlanta Center
08:33AM 34.7917 -84.1653 191° South 450 518 36,000  Level Atlanta Center
08:34AM 34.6603 -84.1953 191° South 450 518 36,000  Level Atlanta Center
08:35AM 34.5392 -84.2203 190° South 443 510 36,000 420 Level Atlanta Center
08:36AM 34.4181 -84.2528 192° South 448 516 36,900 480 Climbing Atlanta Center
08:37AM 34.2950 -84.2803 190° South 448 516 37,000  Climbing Atlanta Center
08:38AM 34.1842 -84.2975 187° South 448 516 37,000  Level Atlanta Center
08:39AM 34.0569 -84.2869 176° South 455 524 37,000  Level Atlanta Center
08:40AM 33.9275 -84.2742 175° South 461 531 37,000  Level Atlanta Center
08:41AM 33.8003 -84.2639 176° South 461 531 37,000  Level Atlanta Center
08:42AM 33.6731 -84.2511 175° South 462 532 37,000  Level Atlanta Center
08:43AM 33.5311 -84.2356 175° South 467 537 37,000  Level Atlanta Center
08:44AM 33.4017 -84.2253 176° South 467 537 37,000  Level Atlanta Center
08:45AM 33.2722 -84.2153 176° South 467 537 37,000  Level Atlanta Center
08:46AM 33.1450 -84.2025 175° South 462 532 37,000  Level Atlanta Center
08:47AM 33.0178 -84.1875 174° South 462 532 37,000  Level Atlanta Center
08:48AM 32.8883 -84.1750 175° South 462 532 37,000  Level Atlanta Center
08:49AM 32.7608 -84.1622 175° South 462 532 37,000  Level Atlanta Center
08:50AM 32.6294 -84.1522 176° South 462 532 37,000  Level Atlanta Center
08:51AM 32.5022 -84.1397 175° South 467 537 37,000  Level Atlanta Center
08:52AM 32.3706 -84.1275 176° South 467 537 37,000  Level Atlanta Center
08:54AM 32.1397 -84.1047 175° South 465 535 37,000  Level Jacksonville Center
08:55AM 32.0125 -84.0956 177° South 460 529 37,000  Level Jacksonville Center
08:56AM 31.8792 -84.0817 175° South 465 535 37,000  Level Jacksonville Center
08:57AM 31.7497 -84.0725 177° South 465 535 37,000  Level Jacksonville Center
08:58AM 31.6183 -84.0589 175° South 465 535 37,000  Level Jacksonville Center
08:59AM 31.4869 -84.0472 176° South 470 541 37,000  Level Jacksonville Center
09:00AM 31.3575 -84.0336 175° South 475 547 37,000  Level Jacksonville Center
09:01AM 31.2283 -84.0222 176° South 475 547 37,000  Level Jacksonville Center
09:02AM 31.0967 -84.0111 176° South 475 547 37,000  Level Jacksonville Center
09:03AM 30.9675 -83.9975 175° South 475 547 37,000  Level Jacksonville Center
09:04AM 30.8361 -83.9861 176° South 475 547 37,000  Level Jacksonville Center
09:05AM 30.7044 -83.9750 176° South 475 547 37,000  Level Jacksonville Center
09:06AM 30.5753 -83.9639 176° South 475 547 37,000 -60 Level Jacksonville Center
09:07AM 30.4500 -83.9528 176° South 470 541 36,900 -60 Descending Jacksonville Center
09:08AM 30.3164 -83.9394 175° South 470 541 36,900  Level Jacksonville Center
09:09AM 30.1872 -83.9306 177° South 470 541 36,900 -120 Level Jacksonville Center
09:10AM 30.0411 -83.9122 174° South 481 554 36,700 -600 Descending Jacksonville Center
09:11AM 29.9164 -83.8606 160° South 473 544 35,800 -960 Descending Jacksonville Center
09:12AM 29.7914 -83.7972 156° South 473 544 34,800 -1,020 Descending Jacksonville Center
09:13AM 29.6667 -83.7339 156° South 486 559 33,800 -960 Descending Jacksonville Center
09:14AM 29.5417 -83.6708 156° South 493 567 32,900 -1,500 Descending Jacksonville Center
09:15AM 29.4189 -83.6103 157° South 493 567 30,800 -2,340 Descending Jacksonville Center
09:16AM 29.2919 -83.5475 157° South 493 567 28,300 -2,340 Descending Jacksonville Center
09:17AM 29.1733 -83.4800 154° Southeast 493 567 26,200 -1,860 Descending Jacksonville Center
09:18AM 29.0589 -83.4106 152° Southeast 475 547 24,600 -1,380 Descending Jacksonville Center
09:19AM 28.9483 -83.3411 151° Southeast 468 539 23,500 -1,680 Descending Jacksonville Center
09:20AM 28.8381 -83.2694 150° Southeast 458 527 21,300 -2,160 Descending Jacksonville Center
09:21AM 28.7339 -83.2003 150° Southeast 448 516 19,200 -2,100 Descending Jacksonville Center
09:22AM 28.5333 -83.0833 153° Southeast 416 479 15,300 -2,040 Descending Tampa TRACON
09:23AM 28.4333 -83.0167 150° Southeast 402 463 13,300 -1,140 Descending Tampa TRACON
09:24AM 28.3500 -82.9667 152° Southeast 357 411 13,100 -240 Descending Tampa TRACON
09:25AM 28.2667 -82.9000 145° Southeast 378 435 12,900 -600 Descending Tampa TRACON
09:26AM 28.1833 -82.8333 145° Southeast 363 418 11,900 -1,020 Descending Tampa TRACON
09:27AM 28.1167 -82.7500 132° Southeast 320 368 10,900 -1,200 Descending Tampa TRACON
09:28AM 28.0667 -82.6833 130° Southeast 311 358 9,500 -1,500 Descending Tampa TRACON
09:29AM 28.0167 -82.6167 130° Southeast 304 350 8,100 -1,920 Descending Tampa TRACON
09:30AM 27.9333 -82.6167 180° South 290 334 5,900 -2,100 Descending Tampa TRACON
09:31AM 27.8500 -82.6167 180° South 283 326 4,000 -1,500 Descending Tampa TRACON
09:32AM 27.7833 -82.6167 180° South 257 296 3,000 -1,020 Descending Tampa TRACON